sensor_id;sensor_type;location;lat;lon;timestamp;pressure;altitude;pressure_sealevel;temperature;humidity
69593;BME280;56796;50.122;14.468;2023-06-26T00:07:14;980.42;;;20.16;73.74
69593;BME280;56796;50.122;14.468;2023-06-26T00:26:33;980.45;;;19.15;80.35
69593;BME280;56796;50.122;14.468;2023-06-26T00:45:58;980.44;;;19.14;81.55
69593;BME280;56796;50.122;14.468;2023-06-26T01:05:28;980.36;;;19.06;81.87
69593;BME280;56796;50.122;14.468;2023-06-26T01:24:52;980.25;;;18.86;82.74
69593;BME280;56796;50.122;14.468;2023-06-26T01:44:19;980.19;;;18.6;83.74
69593;BME280;56796;50.122;14.468;2023-06-26T02:03:36;980.03;;;18.16;86.32
69593;BME280;56796;50.122;14.468;2023-06-26T02:23:02;979.96;;;17.85;87.72
69593;BME280;56796;50.122;14.468;2023-06-26T02:42:29;980.08;;;17.64;88.95
69593;BME280;56796;50.122;14.468;2023-06-26T03:01:56;980.02;;;17.5;89.48
69593;BME280;56796;50.122;14.468;2023-06-26T03:21:23;980.01;;;17.71;89.13
69593;BME280;56796;50.122;14.468;2023-06-26T03:40:51;979.98;;;17.98;87.8
69593;BME280;56796;50.122;14.468;2023-06-26T04:00:18;979.98;;;18.23;87.31
69593;BME280;56796;50.122;14.468;2023-06-26T04:19:47;979.96;;;18.66;85.88
69593;BME280;56796;50.122;14.468;2023-06-26T04:39:15;979.96;;;19.51;83.09
69593;BME280;56796;50.122;14.468;2023-06-26T04:58:44;979.83;;;20.36;80.96
69593;BME280;56796;50.122;14.468;2023-06-26T05:18:14;979.81;;;20.85;78.87
69593;BME280;56796;50.122;14.468;2023-06-26T05:37:43;979.74;;;21.15;77.6
69593;BME280;56796;50.122;14.468;2023-06-26T05:57:11;979.7;;;21.43;76.45
69593;BME280;56796;50.122;14.468;2023-06-26T06:16:40;979.67;;;22.25;74.09
69593;BME280;56796;50.122;14.468;2023-06-26T06:36:10;979.63;;;23.34;69.21
69593;BME280;56796;50.122;14.468;2023-06-26T06:55:45;979.64;;;24.7;63.11
69593;BME280;56796;50.122;14.468;2023-06-26T07:15:17;979.5;;;24.81;61.54
69593;BME280;56796;50.122;14.468;2023-06-26T07:34:46;979.4;;;25.38;59.12
69593;BME280;56796;50.122;14.468;2023-06-26T07:54:17;979.36;;;26.92;55.18
69593;BME280;56796;50.122;14.468;2023-06-26T08:13:49;979.25;;;27.87;51.03
69593;BME280;56796;50.122;14.468;2023-06-26T08:33:21;979.21;;;28.71;48.46
69593;BME280;56796;50.122;14.468;2023-06-26T08:52:53;979.12;;;29.31;45.64
69593;BME280;56796;50.122;14.468;2023-06-26T09:12:21;979.02;;;29.92;46.13
69593;BME280;56796;50.122;14.468;2023-06-26T09:31:52;978.78;;;30.21;44.73
69593;BME280;56796;50.122;14.468;2023-06-26T09:51:23;978.54;;;31.51;42.06
69593;BME280;56796;50.122;14.468;2023-06-26T10:10:56;978.38;;;32.02;38.09
69593;BME280;56796;50.122;14.468;2023-06-26T10:30:23;978.18;;;31.91;38.4
69593;BME280;56796;50.122;14.468;2023-06-26T10:49:44;978.01;;;33.34;36.41
69593;BME280;56796;50.122;14.468;2023-06-26T11:09:24;977.78;;;32.11;37.69
69593;BME280;56796;50.122;14.468;2023-06-26T11:28:25;977.73;;;30.75;40.31
69593;BME280;56796;50.122;14.468;2023-06-26T11:47:54;977.52;;;32.45;35.39
69593;BME280;56796;50.122;14.468;2023-06-26T12:07:25;977.4;;;33.38;33.78
69593;BME280;56796;50.122;14.468;2023-06-26T12:26:54;977.24;;;34.18;33.2
69593;BME280;56796;50.122;14.468;2023-06-26T13:05:51;976.74;;;34.56;33.11
69593;BME280;56796;50.122;14.468;2023-06-26T13:25:19;976.45;;;34;32.75
69593;BME280;56796;50.122;14.468;2023-06-26T13:44:47;976.24;;;34.65;32.45
69593;BME280;56796;50.122;14.468;2023-06-26T14:04:14;975.96;;;33.79;33.09
69593;BME280;56796;50.122;14.468;2023-06-26T14:23:40;975.8;;;33.9;32.93
69593;BME280;56796;50.122;14.468;2023-06-26T14:43:06;975.5;;;34.28;32.72
69593;BME280;56796;50.122;14.468;2023-06-26T15:02:32;975.36;;;32.82;32
69593;BME280;56796;50.122;14.468;2023-06-26T15:21:56;975.02;;;32.84;32.25
69593;BME280;56796;50.122;14.468;2023-06-26T15:41:23;974.76;;;33;32.24
69593;BME280;56796;50.122;14.468;2023-06-26T16:00:50;974.52;;;32.43;32.87
69593;BME280;56796;50.122;14.468;2023-06-26T16:20:15;974.24;;;31.2;34.54
69593;BME280;56796;50.122;14.468;2023-06-26T16:39:41;974.03;;;31.7;33.55
69593;BME280;56796;50.122;14.468;2023-06-26T16:59:09;973.93;;;31.18;34.7
69593;BME280;56796;50.122;14.468;2023-06-26T17:18:35;973.79;;;30.84;35.57
69593;BME280;56796;50.122;14.468;2023-06-26T17:38:04;973.76;;;30.56;36.53
69593;BME280;56796;50.122;14.468;2023-06-26T17:57:29;973.79;;;30.08;38.41
69593;BME280;56796;50.122;14.468;2023-06-26T18:16:54;973.68;;;29.66;39.52
69593;BME280;56796;50.122;14.468;2023-06-26T18:36:21;974.36;;;29.16;41.56
69593;BME280;56796;50.122;14.468;2023-06-26T18:55:45;974.7;;;26.45;54.67
69593;BME280;56796;50.122;14.468;2023-06-26T19:15:07;975.28;;;25.43;58.45
69593;BME280;56796;50.122;14.468;2023-06-26T19:34:29;975.85;;;24.07;65.45
69593;BME280;56796;50.122;14.468;2023-06-26T19:53:53;976.71;;;23.35;71.34
69593;BME280;56796;50.122;14.468;2023-06-26T20:13:18;977.22;;;22.11;80.28
69593;BME280;56796;50.122;14.468;2023-06-26T20:32:42;977.03;;;21.75;81.62
69593;BME280;56796;50.122;14.468;2023-06-26T20:52:11;977.09;;;21.16;83.45
69593;BME280;56796;50.122;14.468;2023-06-26T21:11:28;977.3;;;20.4;85.73
69593;BME280;56796;50.122;14.468;2023-06-26T21:30:52;977.62;;;19.93;86.51
69593;BME280;56796;50.122;14.468;2023-06-26T21:50:19;977.78;;;19.54;86.86
69593;BME280;56796;50.122;14.468;2023-06-26T22:09:45;977.79;;;19.53;87.04
69593;BME280;56796;50.122;14.468;2023-06-26T22:29:12;977.92;;;19.27;88.04
69593;BME280;56796;50.122;14.468;2023-06-26T22:48:39;977.99;;;19.51;87.12
69593;BME280;56796;50.122;14.468;2023-06-26T23:08:08;977.99;;;19.32;89.8
69593;BME280;56796;50.122;14.468;2023-06-26T23:27:28;978.08;;;19.18;93.23
69593;BME280;56796;50.122;14.468;2023-06-26T23:46:55;978.11;;;19.1;91.11
